sensor_id;sensor_type;location;lat;lon;timestamp;pressure;altitude;pressure_sealevel;temperature;humidity
73679;BME280;61978;52.742;16.962;2022-08-01T00:02:15;100520.73;;;13.00;100.00
73679;BME280;61978;52.742;16.962;2022-08-01T00:04:42;100525.38;;;12.95;100.00
73679;BME280;61978;52.742;16.962;2022-08-01T00:07:09;100526.21;;;12.89;100.00
73679;BME280;61978;52.742;16.962;2022-08-01T00:09:36;100530.16;;;12.87;100.00
73679;BME280;61978;52.742;16.962;2022-08-01T00:12:03;100522.48;;;12.77;100.00
73679;BME280;61978;52.742;16.962;2022-08-01T00:14:31;100518.56;;;12.79;100.00
73679;BME280;61978;52.742;16.962;2022-08-01T00:16:57;100518.95;;;12.83;100.00
73679;BME280;61978;52.742;16.962;2022-08-01T00:19:25;100509.01;;;12.83;100.00
73679;BME280;61978;52.742;16.962;2022-08-01T00:21:51;100514.91;;;12.83;100.00
73679;BME280;61978;52.742;16.962;2022-08-01T00:24:17;100514.30;;;12.81;100.00
73679;BME280;61978;52.742;16.962;2022-08-01T00:26:44;100510.89;;;12.76;100.00
73679;BME280;61978;52.742;16.962;2022-08-01T00:29:11;100511.30;;;12.67;100.00
73679;BME280;61978;52.742;16.962;2022-08-01T00:31:37;100505.70;;;12.62;100.00
73679;BME280;61978;52.742;16.962;2022-08-01T00:34:03;100510.69;;;12.65;100.00
73679;BME280;61978;52.742;16.962;2022-08-01T00:36:30;100506.94;;;12.66;100.00
73679;BME280;61978;52.742;16.962;2022-08-01T00:38:57;100506.09;;;12.65;100.00
73679;BME280;61978;52.742;16.962;2022-08-01T00:41:23;100505.50;;;12.70;100.00
73679;BME280;61978;52.742;16.962;2022-08-01T00:43:50;100509.64;;;12.79;100.00
73679;BME280;61978;52.742;16.962;2022-08-01T00:46:16;100506.53;;;12.82;100.00
73679;BME280;61978;52.742;16.962;2022-08-01T00:48:43;100504.45;;;12.84;100.00
73679;BME280;61978;52.742;16.962;2022-08-01T00:51:10;100504.27;;;12.86;100.00
73679;BME280;61978;52.742;16.962;2022-08-01T00:53:39;100504.03;;;12.87;100.00
73679;BME280;61978;52.742;16.962;2022-08-01T00:56:05;100501.95;;;12.89;100.00
73679;BME280;61978;52.742;16.962;2022-08-01T00:58:33;100497.30;;;12.94;100.00
73679;BME280;61978;52.742;16.962;2022-08-01T01:01:00;100496.56;;;13.02;100.00
73679;BME280;61978;52.742;16.962;2022-08-01T01:03:27;100493.38;;;13.09;100.00
73679;BME280;61978;52.742;16.962;2022-08-01T01:06:05;100489.11;;;13.17;100.00
73679;BME280;61978;52.742;16.962;2022-08-01T01:08:32;100491.67;;;13.21;100.00
73679;BME280;61978;52.742;16.962;2022-08-01T01:11:03;100503.39;;;13.24;100.00
73679;BME280;61978;52.742;16.962;2022-08-01T01:13:35;100491.25;;;13.24;100.00
73679;BME280;61978;52.742;16.962;2022-08-01T01:16:05;100495.42;;;13.27;100.00
73679;BME280;61978;52.742;16.962;2022-08-01T01:18:51;100505.56;;;13.31;100.00
73679;BME280;61978;52.742;16.962;2022-08-01T01:24:18;100502.13;;;13.33;100.00
73679;BME280;61978;52.742;16.962;2022-08-01T01:27:06;100498.59;;;13.40;100.00
73679;BME280;61978;52.742;16.962;2022-08-01T01:32:25;100499.23;;;13.42;100.00
73679;BME280;61978;52.742;16.962;2022-08-01T01:34:53;100486.95;;;13.46;100.00
73679;BME280;61978;52.742;16.962;2022-08-01T01:37:22;100490.98;;;13.52;100.00
73679;BME280;61978;52.742;16.962;2022-08-01T01:39:51;100489.02;;;13.57;100.00
73679;BME280;61978;52.742;16.962;2022-08-01T01:42:19;100483.61;;;13.57;100.00
73679;BME280;61978;52.742;16.962;2022-08-01T01:44:48;100482.38;;;13.53;100.00
73679;BME280;61978;52.742;16.962;2022-08-01T01:47:16;100486.84;;;13.50;100.00
73679;BME280;61978;52.742;16.962;2022-08-01T01:49:45;100485.92;;;13.47;100.00
73679;BME280;61978;52.742;16.962;2022-08-01T01:52:15;100484.34;;;13.48;100.00
73679;BME280;61978;52.742;16.962;2022-08-01T01:54:45;100481.96;;;13.49;100.00
73679;BME280;61978;52.742;16.962;2022-08-01T01:57:13;100478.52;;;13.51;100.00
73679;BME280;61978;52.742;16.962;2022-08-01T01:59:41;100483.12;;;13.51;100.00
73679;BME280;61978;52.742;16.962;2022-08-01T02:02:09;100486.73;;;13.54;100.00
73679;BME280;61978;52.742;16.962;2022-08-01T02:04:40;100484.23;;;13.52;100.00
73679;BME280;61978;52.742;16.962;2022-08-01T02:07:08;100485.67;;;13.55;100.00
73679;BME280;61978;52.742;16.962;2022-08-01T02:09:37;100487.34;;;13.56;100.00
73679;BME280;61978;52.742;16.962;2022-08-01T02:12:05;100477.37;;;13.63;100.00
73679;BME280;61978;52.742;16.962;2022-08-01T02:14:33;100479.64;;;13.66;100.00
73679;BME280;61978;52.742;16.962;2022-08-01T02:17:02;100480.84;;;13.70;100.00
73679;BME280;61978;52.742;16.962;2022-08-01T02:19:33;100478.75;;;13.72;100.00
73679;BME280;61978;52.742;16.962;2022-08-01T02:22:04;100480.31;;;13.77;100.00
73679;BME280;61978;52.742;16.962;2022-08-01T02:24:39;100470.95;;;13.79;100.00
73679;BME280;61978;52.742;16.962;2022-08-01T02:27:08;100473.97;;;13.80;100.00
73679;BME280;61978;52.742;16.962;2022-08-01T02:29:43;100466.38;;;13.80;100.00
73679;BME280;61978;52.742;16.962;2022-08-01T02:32:14;100469.37;;;13.81;100.00
73679;BME280;61978;52.742;16.962;2022-08-01T02:34:41;100469.37;;;13.81;100.00
73679;BME280;61978;52.742;16.962;2022-08-01T02:37:10;100466.16;;;13.81;100.00
73679;BME280;61978;52.742;16.962;2022-08-01T02:39:38;100463.11;;;13.87;100.00
73679;BME280;61978;52.742;16.962;2022-08-01T02:42:06;100461.13;;;13.91;100.00
73679;BME280;61978;52.742;16.962;2022-08-01T02:44:37;100459.55;;;13.93;100.00
73679;BME280;61978;52.742;16.962;2022-08-01T02:47:05;100454.55;;;13.97;100.00
73679;BME280;61978;52.742;16.962;2022-08-01T02:49:35;100456.81;;;14.00;100.00
73679;BME280;61978;52.742;16.962;2022-08-01T02:52:07;100455.13;;;14.05;100.00
73679;BME280;61978;52.742;16.962;2022-08-01T02:54:36;100459.80;;;14.07;100.00
73679;BME280;61978;52.742;16.962;2022-08-01T02:57:04;100455.61;;;14.11;100.00
73679;BME280;61978;52.742;16.962;2022-08-01T02:59:34;100454.45;;;14.16;100.00
73679;BME280;61978;52.742;16.962;2022-08-01T03:02:03;100445.68;;;14.21;100.00
73679;BME280;61978;52.742;16.962;2022-08-01T03:04:33;100449.06;;;14.25;100.00
73679;BME280;61978;52.742;16.962;2022-08-01T03:07:03;100441.07;;;14.28;100.00
73679;BME280;61978;52.742;16.962;2022-08-01T03:09:32;100443.54;;;14.29;100.00
73679;BME280;61978;52.742;16.962;2022-08-01T03:12:04;100444.14;;;14.31;100.00
73679;BME280;61978;52.742;16.962;2022-08-01T03:14:36;100448.19;;;14.31;100.00
73679;BME280;61978;52.742;16.962;2022-08-01T03:17:05;100442.70;;;14.35;100.00
73679;BME280;61978;52.742;16.962;2022-08-01T03:19:33;100441.42;;;14.38;100.00
73679;BME280;61978;52.742;16.962;2022-08-01T03:22:02;100437.17;;;14.39;100.00
73679;BME280;61978;52.742;16.962;2022-08-01T03:24:30;100436.73;;;14.42;100.00
73679;BME280;61978;52.742;16.962;2022-08-01T03:26:59;100437.33;;;14.44;100.00
73679;BME280;61978;52.742;16.962;2022-08-01T03:29:28;100434.27;;;14.50;100.00
73679;BME280;61978;52.742;16.962;2022-08-01T03:31:58;100435.77;;;14.55;100.00
73679;BME280;61978;52.742;16.962;2022-08-01T03:34:28;100427.92;;;14.63;100.00
73679;BME280;61978;52.742;16.962;2022-08-01T03:37:03;100421.95;;;14.70;100.00
73679;BME280;61978;52.742;16.962;2022-08-01T03:39:34;100423.14;;;14.74;100.00
73679;BME280;61978;52.742;16.962;2022-08-01T03:42:05;100419.99;;;14.77;100.00
73679;BME280;61978;52.742;16.962;2022-08-01T03:44:34;100421.50;;;14.82;100.00
73679;BME280;61978;52.742;16.962;2022-08-01T03:47:07;100429.55;;;14.88;100.00
73679;BME280;61978;52.742;16.962;2022-08-01T03:49:40;100421.30;;;14.92;100.00
73679;BME280;61978;52.742;16.962;2022-08-01T03:52:08;100424.68;;;14.97;100.00
73679;BME280;61978;52.742;16.962;2022-08-01T03:54:41;100421.08;;;15.03;100.00
73679;BME280;61978;52.742;16.962;2022-08-01T03:57:07;100427.39;;;15.06;100.00
73679;BME280;61978;52.742;16.962;2022-08-01T03:59:37;100421.53;;;15.09;100.00
73679;BME280;61978;52.742;16.962;2022-08-01T04:02:04;100425.38;;;15.11;100.00
73679;BME280;61978;52.742;16.962;2022-08-01T04:04:33;100425.77;;;15.14;100.00
73679;BME280;61978;52.742;16.962;2022-08-01T04:07:02;100423.20;;;15.19;100.00
73679;BME280;61978;52.742;16.962;2022-08-01T04:09:31;100426.36;;;15.25;100.00
73679;BME280;61978;52.742;16.962;2022-08-01T04:12:00;100424.56;;;15.28;100.00
73679;BME280;61978;52.742;16.962;2022-08-01T04:14:29;100426.05;;;15.33;100.00
73679;BME280;61978;52.742;16.962;2022-08-01T04:16:55;100432.44;;;15.39;100.00
73679;BME280;61978;52.742;16.962;2022-08-01T04:19:21;100432.81;;;15.42;100.00
73679;BME280;61978;52.742;16.962;2022-08-01T04:21:48;100424.18;;;15.43;100.00
73679;BME280;61978;52.742;16.962;2022-08-01T04:24:17;100427.78;;;15.46;100.00
73679;BME280;61978;52.742;16.962;2022-08-01T04:26:49;100423.83;;;15.48;100.00
73679;BME280;61978;52.742;16.962;2022-08-01T04:29:18;100420.73;;;15.54;100.00
73679;BME280;61978;52.742;16.962;2022-08-01T04:31:48;100407.43;;;15.62;100.00
73679;BME280;61978;52.742;16.962;2022-08-01T04:34:20;100420.95;;;15.71;100.00
73679;BME280;61978;52.742;16.962;2022-08-01T04:36:49;100419.86;;;15.81;100.00
73679;BME280;61978;52.742;16.962;2022-08-01T04:39:28;100412.76;;;15.89;100.00
73679;BME280;61978;52.742;16.962;2022-08-01T04:42:04;100419.38;;;15.93;100.00
73679;BME280;61978;52.742;16.962;2022-08-01T04:44:34;100415.17;;;15.97;100.00
73679;BME280;61978;52.742;16.962;2022-08-01T04:47:03;100422.06;;;16.02;100.00
73679;BME280;61978;52.742;16.962;2022-08-01T04:49:36;100418.00;;;16.02;100.00
73679;BME280;61978;52.742;16.962;2022-08-01T04:52:04;100414.25;;;16.03;100.00
73679;BME280;61978;52.742;16.962;2022-08-01T04:54:35;100414.58;;;16.06;100.00
73679;BME280;61978;52.742;16.962;2022-08-01T05:00:17;100409.32;;;16.11;100.00
73679;BME280;61978;52.742;16.962;2022-08-01T05:02:44;100407.31;;;16.19;100.00
73679;BME280;61978;52.742;16.962;2022-08-01T05:05:12;100402.05;;;16.24;100.00
73679;BME280;61978;52.742;16.962;2022-08-01T05:07:43;100411.95;;;16.30;100.00
73679;BME280;61978;52.742;16.962;2022-08-01T05:10:11;100403.48;;;16.38;100.00
73679;BME280;61978;52.742;16.962;2022-08-01T05:12:38;100403.74;;;16.48;100.00
73679;BME280;61978;52.742;16.962;2022-08-01T05:15:06;100403.17;;;16.57;100.00
73679;BME280;61978;52.742;16.962;2022-08-01T05:17:34;100401.59;;;16.71;100.00
73679;BME280;61978;52.742;16.962;2022-08-01T05:20:02;100397.58;;;16.85;100.00
73679;BME280;61978;52.742;16.962;2022-08-01T05:22:29;100402.77;;;16.98;100.00
73679;BME280;61978;52.742;16.962;2022-08-01T05:24:55;100395.72;;;17.11;99.87
73679;BME280;61978;52.742;16.962;2022-08-01T05:27:22;100402.73;;;17.21;99.06
73679;BME280;61978;52.742;16.962;2022-08-01T05:29:50;100391.80;;;17.30;98.48
73679;BME280;61978;52.742;16.962;2022-08-01T05:32:18;100391.42;;;17.38;97.87
73679;BME280;61978;52.742;16.962;2022-08-01T05:34:46;100394.53;;;17.44;97.01
73679;BME280;61978;52.742;16.962;2022-08-01T05:37:15;100385.28;;;17.54;96.52
73679;BME280;61978;52.742;16.962;2022-08-01T05:39:41;100389.75;;;17.60;95.81
73679;BME280;61978;52.742;16.962;2022-08-01T05:42:09;100389.27;;;17.63;94.70
73679;BME280;61978;52.742;16.962;2022-08-01T05:44:36;100392.85;;;17.66;93.94
73679;BME280;61978;52.742;16.962;2022-08-01T05:47:03;100398.86;;;17.68;93.62
73679;BME280;61978;52.742;16.962;2022-08-01T05:49:30;100400.22;;;17.68;93.52
73679;BME280;61978;52.742;16.962;2022-08-01T05:51:58;100398.55;;;17.67;93.61
73679;BME280;61978;52.742;16.962;2022-08-01T05:54:27;100397.98;;;17.65;93.64
73679;BME280;61978;52.742;16.962;2022-08-01T05:56:55;100400.22;;;17.68;93.60
73679;BME280;61978;52.742;16.962;2022-08-01T05:59:23;100395.36;;;17.70;93.95
73679;BME280;61978;52.742;16.962;2022-08-01T06:01:50;100398.19;;;17.75;93.66
73679;BME280;61978;52.742;16.962;2022-08-01T06:04:16;100396.87;;;17.78;93.11
73679;BME280;61978;52.742;16.962;2022-08-01T06:06:43;100394.39;;;17.76;92.96
73679;BME280;61978;52.742;16.962;2022-08-01T06:09:11;100386.77;;;17.76;93.12
73679;BME280;61978;52.742;16.962;2022-08-01T06:11:38;100394.05;;;17.73;93.10
73679;BME280;61978;52.742;16.962;2022-08-01T06:14:05;100397.80;;;17.69;93.64
73679;BME280;61978;52.742;16.962;2022-08-01T06:16:33;100396.53;;;17.74;94.22
73679;BME280;61978;52.742;16.962;2022-08-01T06:19:00;100398.19;;;17.75;94.46
73679;BME280;61978;52.742;16.962;2022-08-01T06:21:27;100397.36;;;17.75;94.51
73679;BME280;61978;52.742;16.962;2022-08-01T06:23:54;100389.56;;;17.79;94.53
73679;BME280;61978;52.742;16.962;2022-08-01T06:26:21;100397.66;;;17.90;94.26
73679;BME280;61978;52.742;16.962;2022-08-01T06:28:48;100388.95;;;18.05;93.22
73679;BME280;61978;52.742;16.962;2022-08-01T06:31:15;100389.30;;;18.25;92.08
73679;BME280;61978;52.742;16.962;2022-08-01T06:33:42;100380.98;;;18.48;91.14
73679;BME280;61978;52.742;16.962;2022-08-01T06:36:09;100387.36;;;18.70;89.92
73679;BME280;61978;52.742;16.962;2022-08-01T06:38:36;100382.38;;;18.84;88.75
73679;BME280;61978;52.742;16.962;2022-08-01T06:41:04;100384.62;;;18.90;87.59
73679;BME280;61978;52.742;16.962;2022-08-01T06:43:32;100391.30;;;18.99;87.08
73679;BME280;61978;52.742;16.962;2022-08-01T06:45:59;100385.41;;;19.07;86.32
73679;BME280;61978;52.742;16.962;2022-08-01T06:48:27;100385.34;;;19.21;86.11
73679;BME280;61978;52.742;16.962;2022-08-01T06:50:53;100389.57;;;19.33;85.44
73679;BME280;61978;52.742;16.962;2022-08-01T06:53:22;100388.27;;;19.36;84.48
73679;BME280;61978;52.742;16.962;2022-08-01T06:55:50;100390.94;;;19.53;83.98
73679;BME280;61978;52.742;16.962;2022-08-01T06:58:16;100389.09;;;19.58;83.76
73679;BME280;61978;52.742;16.962;2022-08-01T07:00:43;100392.97;;;19.62;83.50
73679;BME280;61978;52.742;16.962;2022-08-01T07:03:12;100391.78;;;19.77;83.18
73679;BME280;61978;52.742;16.962;2022-08-01T07:05:43;100393.61;;;19.98;82.73
73679;BME280;61978;52.742;16.962;2022-08-01T07:08:10;100391.52;;;20.06;82.07
73679;BME280;61978;52.742;16.962;2022-08-01T07:10:37;100382.86;;;20.14;81.88
73679;BME280;61978;52.742;16.962;2022-08-01T07:13:05;100386.05;;;20.30;81.74
73679;BME280;61978;52.742;16.962;2022-08-01T07:15:31;100382.63;;;20.18;81.20
73679;BME280;61978;52.742;16.962;2022-08-01T07:17:59;100381.14;;;20.32;81.19
73679;BME280;61978;52.742;16.962;2022-08-01T07:20:28;100386.60;;;20.32;80.29
73679;BME280;61978;52.742;16.962;2022-08-01T07:22:55;100390.59;;;20.22;80.51
73679;BME280;61978;52.742;16.962;2022-08-01T07:25:24;100382.30;;;20.38;80.94
73679;BME280;61978;52.742;16.962;2022-08-01T07:27:51;100384.22;;;20.40;80.68
73679;BME280;61978;52.742;16.962;2022-08-01T07:30:18;100375.84;;;20.52;80.05
73679;BME280;61978;52.742;16.962;2022-08-01T07:32:45;100375.09;;;20.59;79.84
73679;BME280;61978;52.742;16.962;2022-08-01T07:35:11;100382.19;;;20.58;79.89
73679;BME280;61978;52.742;16.962;2022-08-01T07:37:38;100376.02;;;20.72;79.65
73679;BME280;61978;52.742;16.962;2022-08-01T07:40:07;100369.22;;;20.77;79.07
73679;BME280;61978;52.742;16.962;2022-08-01T07:42:34;100370.55;;;20.72;78.50
73679;BME280;61978;52.742;16.962;2022-08-01T07:45:00;100374.34;;;20.66;78.68
73679;BME280;61978;52.742;16.962;2022-08-01T07:47:27;100379.82;;;20.71;78.82
73679;BME280;61978;52.742;16.962;2022-08-01T07:49:59;100372.99;;;20.71;78.98
73679;BME280;61978;52.742;16.962;2022-08-01T07:52:26;100377.41;;;20.77;78.31
73679;BME280;61978;52.742;16.962;2022-08-01T07:54:53;100367.66;;;20.91;78.29
73679;BME280;61978;52.742;16.962;2022-08-01T07:57:19;100367.67;;;20.96;78.31
73679;BME280;61978;52.742;16.962;2022-08-01T07:59:45;100361.02;;;21.22;77.67
73679;BME280;61978;52.742;16.962;2022-08-01T08:02:13;100358.12;;;21.43;77.40
73679;BME280;61978;52.742;16.962;2022-08-01T08:04:45;100349.33;;;21.31;77.05
73679;BME280;61978;52.742;16.962;2022-08-01T08:07:13;100355.93;;;21.45;76.78
73679;BME280;61978;52.742;16.962;2022-08-01T08:09:41;100358.89;;;21.34;76.71
73679;BME280;61978;52.742;16.962;2022-08-01T08:12:08;100366.80;;;21.33;76.98
73679;BME280;61978;52.742;16.962;2022-08-01T08:14:35;100366.04;;;21.50;77.41
73679;BME280;61978;52.742;16.962;2022-08-01T08:17:03;100366.63;;;21.59;76.46
73679;BME280;61978;52.742;16.962;2022-08-01T08:19:31;100374.58;;;21.64;76.53
73679;BME280;61978;52.742;16.962;2022-08-01T08:21:59;100361.98;;;21.65;75.62
73679;BME280;61978;52.742;16.962;2022-08-01T08:24:27;100371.80;;;21.56;75.66
73679;BME280;61978;52.742;16.962;2022-08-01T08:26:56;100365.11;;;22.04;75.62
73679;BME280;61978;52.742;16.962;2022-08-01T08:29:23;100367.84;;;22.06;74.71
73679;BME280;61978;52.742;16.962;2022-08-01T08:31:52;100364.31;;;22.46;74.83
73679;BME280;61978;52.742;16.962;2022-08-01T08:34:19;100365.41;;;22.73;74.18
73679;BME280;61978;52.742;16.962;2022-08-01T08:36:47;100349.98;;;23.05;72.74
73679;BME280;61978;52.742;16.962;2022-08-01T08:39:14;100361.83;;;22.75;71.98
73679;BME280;61978;52.742;16.962;2022-08-01T08:41:42;100357.19;;;22.55;72.91
73679;BME280;61978;52.742;16.962;2022-08-01T08:44:09;100357.15;;;22.98;72.88
73679;BME280;61978;52.742;16.962;2022-08-01T08:46:42;100352.13;;;23.20;71.53
73679;BME280;61978;52.742;16.962;2022-08-01T08:49:13;100345.40;;;23.59;70.56
73679;BME280;61978;52.742;16.962;2022-08-01T08:51:41;100339.00;;;23.74;70.46
73679;BME280;61978;52.742;16.962;2022-08-01T08:54:12;100334.66;;;24.07;70.18
73679;BME280;61978;52.742;16.962;2022-08-01T08:56:42;100335.52;;;24.39;68.56
73679;BME280;61978;52.742;16.962;2022-08-01T08:59:11;100330.95;;;24.86;68.21
73679;BME280;61978;52.742;16.962;2022-08-01T09:01:44;100331.98;;;24.93;66.94
73679;BME280;61978;52.742;16.962;2022-08-01T09:04:11;100332.05;;;25.09;66.48
73679;BME280;61978;52.742;16.962;2022-08-01T09:06:39;100330.77;;;24.75;66.15
73679;BME280;61978;52.742;16.962;2022-08-01T09:09:07;100325.56;;;25.03;66.80
73679;BME280;61978;52.742;16.962;2022-08-01T09:11:34;100330.66;;;25.35;66.42
73679;BME280;61978;52.742;16.962;2022-08-01T09:14:11;100325.41;;;25.58;65.08
73679;BME280;61978;52.742;16.962;2022-08-01T09:16:42;100326.01;;;25.10;63.97
73679;BME280;61978;52.742;16.962;2022-08-01T09:19:13;100335.79;;;25.18;65.38
73679;BME280;61978;52.742;16.962;2022-08-01T09:21:56;100340.52;;;25.36;65.68
73679;BME280;61978;52.742;16.962;2022-08-01T09:24:25;100330.67;;;25.57;64.16
73679;BME280;61978;52.742;16.962;2022-08-01T09:26:53;100326.28;;;25.56;64.52
73679;BME280;61978;52.742;16.962;2022-08-01T09:29:23;100334.52;;;25.56;65.04
73679;BME280;61978;52.742;16.962;2022-08-01T09:31:50;100331.09;;;25.42;64.71
73679;BME280;61978;52.742;16.962;2022-08-01T09:34:26;100334.42;;;25.39;65.65
73679;BME280;61978;52.742;16.962;2022-08-01T09:36:55;100327.69;;;25.08;65.13
73679;BME280;61978;52.742;16.962;2022-08-01T09:41:58;100334.97;;;25.41;64.98
73679;BME280;61978;52.742;16.962;2022-08-01T09:44:42;100325.09;;;25.62;63.73
73679;BME280;61978;52.742;16.962;2022-08-01T09:47:11;100328.14;;;25.79;63.47
73679;BME280;61978;52.742;16.962;2022-08-01T09:49:39;100332.13;;;25.89;63.40
73679;BME280;61978;52.742;16.962;2022-08-01T09:52:18;100329.67;;;26.22;62.94
73679;BME280;61978;52.742;16.962;2022-08-01T09:55:00;100320.27;;;26.42;62.71
73679;BME280;61978;52.742;16.962;2022-08-01T09:57:28;100313.92;;;26.25;62.49
73679;BME280;61978;52.742;16.962;2022-08-01T09:59:57;100311.95;;;26.28;62.91
73679;BME280;61978;52.742;16.962;2022-08-01T10:02:34;100307.72;;;26.49;61.25
73679;BME280;61978;52.742;16.962;2022-08-01T10:05:03;100322.72;;;25.74;62.67
73679;BME280;61978;52.742;16.962;2022-08-01T10:07:31;100313.75;;;26.19;63.52
73679;BME280;61978;52.742;16.962;2022-08-01T10:10:12;100305.33;;;26.29;62.28
73679;BME280;61978;52.742;16.962;2022-08-01T10:12:41;100308.64;;;26.10;62.29
73679;BME280;61978;52.742;16.962;2022-08-01T10:15:09;100313.41;;;26.05;62.88
73679;BME280;61978;52.742;16.962;2022-08-01T10:17:39;100313.63;;;26.08;63.12
73679;BME280;61978;52.742;16.962;2022-08-01T10:20:09;100302.80;;;26.14;62.67
73679;BME280;61978;52.742;16.962;2022-08-01T10:22:42;100301.75;;;26.75;61.33
73679;BME280;61978;52.742;16.962;2022-08-01T10:25:11;100299.22;;;26.48;62.23
73679;BME280;61978;52.742;16.962;2022-08-01T10:27:42;100299.38;;;26.55;60.97
73679;BME280;61978;52.742;16.962;2022-08-01T10:30:13;100301.42;;;26.63;60.16
73679;BME280;61978;52.742;16.962;2022-08-01T10:32:41;100311.77;;;25.69;61.98
73679;BME280;61978;52.742;16.962;2022-08-01T10:35:11;100311.27;;;26.36;62.78
73679;BME280;61978;52.742;16.962;2022-08-01T10:37:46;100297.06;;;27.02;61.32
73679;BME280;61978;52.742;16.962;2022-08-01T10:40:13;100289.79;;;27.47;59.40
73679;BME280;61978;52.742;16.962;2022-08-01T10:42:44;100290.31;;;27.49;59.31
73679;BME280;61978;52.742;16.962;2022-08-01T10:45:13;100287.78;;;27.12;60.05
73679;BME280;61978;52.742;16.962;2022-08-01T10:50:19;100300.16;;;26.41;60.85
73679;BME280;61978;52.742;16.962;2022-08-01T10:53:09;100294.11;;;26.56;60.87
73679;BME280;61978;52.742;16.962;2022-08-01T10:58:39;100290.79;;;26.99;59.86
73679;BME280;61978;52.742;16.962;2022-08-01T11:01:25;100281.27;;;27.08;59.42
73679;BME280;61978;52.742;16.962;2022-08-01T11:12:00;100281.66;;;27.65;58.19
73679;BME280;61978;52.742;16.962;2022-08-01T11:14:31;100282.37;;;26.93;58.85
73679;BME280;61978;52.742;16.962;2022-08-01T11:20:07;100289.09;;;27.15;59.30
73679;BME280;61978;52.742;16.962;2022-08-01T11:28:17;100290.77;;;27.02;59.64
73679;BME280;61978;52.742;16.962;2022-08-01T11:30:53;100289.66;;;27.14;59.50
73679;BME280;61978;52.742;16.962;2022-08-01T11:41:33;100276.51;;;27.85;57.84
73679;BME280;61978;52.742;16.962;2022-08-01T11:44:04;100290.53;;;26.85;59.74
73679;BME280;61978;52.742;16.962;2022-08-01T11:46:51;100292.13;;;27.54;58.88
73679;BME280;61978;52.742;16.962;2022-08-01T11:52:12;100280.89;;;27.50;57.76
73679;BME280;61978;52.742;16.962;2022-08-01T11:54:40;100282.67;;;27.19;58.16
73679;BME280;61978;52.742;16.962;2022-08-01T11:57:13;100288.01;;;27.02;58.98
73679;BME280;61978;52.742;16.962;2022-08-01T11:59:44;100283.17;;;27.21;58.89
73679;BME280;61978;52.742;16.962;2022-08-01T12:02:22;100286.95;;;27.12;59.13
73679;BME280;61978;52.742;16.962;2022-08-01T12:05:05;100283.81;;;27.29;59.08
73679;BME280;61978;52.742;16.962;2022-08-01T12:07:32;100286.17;;;26.84;58.63
73679;BME280;61978;52.742;16.962;2022-08-01T12:10:10;100292.68;;;26.88;58.22
73679;BME280;61978;52.742;16.962;2022-08-01T12:15:19;100294.59;;;26.90;58.28
73679;BME280;61978;52.742;16.962;2022-08-01T12:17:55;100289.31;;;26.91;58.62
73679;BME280;61978;52.742;16.962;2022-08-01T12:20:21;100303.20;;;26.70;57.32
73679;BME280;61978;52.742;16.962;2022-08-01T12:22:56;100294.54;;;26.63;56.93
73679;BME280;61978;52.742;16.962;2022-08-01T12:25:22;100295.30;;;26.66;56.68
73679;BME280;61978;52.742;16.962;2022-08-01T12:27:50;100289.20;;;26.53;56.42
73679;BME280;61978;52.742;16.962;2022-08-01T12:30:18;100293.27;;;26.58;57.09
73679;BME280;61978;52.742;16.962;2022-08-01T12:32:46;100295.81;;;26.38;57.35
73679;BME280;61978;52.742;16.962;2022-08-01T12:35:17;100294.50;;;26.49;56.79
73679;BME280;61978;52.742;16.962;2022-08-01T12:37:52;100291.34;;;26.72;57.17
73679;BME280;61978;52.742;16.962;2022-08-01T12:40:21;100283.57;;;26.60;57.22
73679;BME280;61978;52.742;16.962;2022-08-01T12:42:50;100288.66;;;26.67;57.13
73679;BME280;61978;52.742;16.962;2022-08-01T12:45:25;100280.50;;;26.62;57.46
73679;BME280;61978;52.742;16.962;2022-08-01T12:47:54;100288.39;;;26.82;56.29
73679;BME280;61978;52.742;16.962;2022-08-01T12:50:23;100284.18;;;26.71;56.41
73679;BME280;61978;52.742;16.962;2022-08-01T12:52:51;100285.83;;;26.72;56.42
73679;BME280;61978;52.742;16.962;2022-08-01T12:55:24;100286.83;;;26.48;56.69
73679;BME280;61978;52.742;16.962;2022-08-01T12:57:49;100284.52;;;26.67;57.46
73679;BME280;61978;52.742;16.962;2022-08-01T13:00:20;100284.05;;;26.78;56.60
73679;BME280;61978;52.742;16.962;2022-08-01T13:02:50;100277.95;;;26.79;56.36
73679;BME280;61978;52.742;16.962;2022-08-01T13:05:17;100292.16;;;26.26;56.82
73679;BME280;61978;52.742;16.962;2022-08-01T13:07:49;100288.64;;;26.39;56.74
73679;BME280;61978;52.742;16.962;2022-08-01T13:10:30;100289.04;;;26.46;56.50
73679;BME280;61978;52.742;16.962;2022-08-01T13:12:58;100287.86;;;26.20;56.78
73679;BME280;61978;52.742;16.962;2022-08-01T13:15:32;100293.10;;;26.52;57.21
73679;BME280;61978;52.742;16.962;2022-08-01T13:20:49;100288.30;;;26.27;57.59
73679;BME280;61978;52.742;16.962;2022-08-01T13:23:18;100295.25;;;26.22;57.23
73679;BME280;61978;52.742;16.962;2022-08-01T13:25:54;100305.55;;;26.14;57.39
73679;BME280;61978;52.742;16.962;2022-08-01T13:28:23;100296.90;;;26.23;57.65
73679;BME280;61978;52.742;16.962;2022-08-01T13:31:03;100299.00;;;26.10;57.41
73679;BME280;61978;52.742;16.962;2022-08-01T13:33:28;100303.23;;;25.89;57.63
73679;BME280;61978;52.742;16.962;2022-08-01T13:35:56;100294.92;;;26.08;57.92
73679;BME280;61978;52.742;16.962;2022-08-01T13:38:24;100298.02;;;26.38;57.53